Time;durP1;ratioP1;P1;durP2;ratioP2;P2;SDS_P1;SDS_P2;PMS_P1;PMS_P2;Temp;Humidity;BMP_temperature;BMP_pressure;BME280_temperature;BME280_humidity;BME280_pressure;Samples;Min_cycle;Max_cycle;Signal;HPM_P1;HPM_P2
2023/01/05 00:01:04;;;;;;;46.92;26.10;;;;;;;6.55;72.97;95637.06;4953238;28;20031;-74
2023/01/05 00:03:29;;;;;;;37.55;23.08;;;;;;;6.53;73.17;95632.91;4976116;28;20038;-75
2023/01/05 00:05:59;;;;;;;40.20;23.95;;;;;;;6.36;73.63;95631.22;4964925;28;20039;-74
2023/01/05 00:08:25;;;;;;;37.00;22.52;;;;;;;6.32;73.46;95627.94;4972199;28;20390;-74
2023/01/05 00:24:31;;;;;;;28.55;16.85;;;;;;;6.04;75.05;95628.56;4971783;28;20456;-74
2023/01/05 00:26:57;;;;;;;28.45;16.80;;;;;;;5.90;75.04;95610.38;4954857;28;20035;-74
2023/01/05 00:29:22;;;;;;;31.80;17.27;;;;;;;5.94;75.40;95624.81;4971644;28;20413;-74
2023/01/05 00:31:48;;;;;;;34.05;18.80;;;;;;;5.83;75.73;95618.44;4971406;28;20050;-75
2023/01/05 00:34:13;;;;;;;31.45;17.00;;;;;;;5.91;75.57;95618.03;4938999;28;20504;-75
2023/01/05 00:36:39;;;;;;;29.17;16.38;;;;;;;5.94;75.53;95617.09;4952466;29;20027;-74
2023/01/05 00:39:05;;;;;;;28.40;15.50;;;;;;;6.02;74.92;95609.78;4964165;28;20041;-74
2023/01/05 00:41:30;;;;;;;29.52;16.52;;;;;;;6.01;75.17;95615.84;4953763;28;20449;-74
2023/01/05 00:43:56;;;;;;;28.88;15.43;;;;;;;5.92;75.41;95608.56;4968589;28;20034;-75
2023/01/05 00:46:21;;;;;;;26.65;15.02;;;;;;;6.04;74.77;95610.50;4952229;28;20493;-74
2023/01/05 00:48:47;;;;;;;25.63;14.70;;;;;;;5.93;74.87;95597.31;4965931;28;20097;-74
2023/01/05 00:51:12;;;;;;;27.67;15.10;;;;;;;6.03;74.78;95611.44;4954974;28;20094;-74
2023/01/05 00:53:38;;;;;;;26.85;14.48;;;;;;;6.11;74.41;95606.72;4986987;28;20039;-74
2023/01/05 00:56:03;;;;;;;25.48;13.88;;;;;;;6.09;74.39;95590.47;4968925;28;20417;-74
2023/01/05 00:58:29;;;;;;;23.35;14.15;;;;;;;6.16;74.00;95597.00;4977472;28;20051;-74
2023/01/05 01:00:54;;;;;;;25.23;13.75;;;;;;;6.22;74.05;95599.25;4956147;28;20502;-74
2023/01/05 01:03:20;;;;;;;24.08;13.57;;;;;;;6.28;73.63;95599.84;4968452;28;20110;-74
2023/01/05 01:05:45;;;;;;;23.10;13.68;;;;;;;6.30;73.51;95595.44;4968262;28;20441;-74
2023/01/05 01:08:11;;;;;;;24.63;13.98;;;;;;;6.22;73.36;95573.44;4960957;28;20031;-74
2023/01/05 01:10:39;;;;;;;19.60;12.45;;;;;;;6.39;73.27;95597.50;4958402;28;20059;-74
2023/01/05 01:13:04;;;;;;;23.60;13.38;;;;;;;6.39;73.28;95598.34;4962471;28;20039;-74
2023/01/05 01:15:30;;;;;;;19.77;11.80;;;;;;;6.37;73.44;95599.31;4953122;28;20020;-74
2023/01/05 01:17:55;;;;;;;22.52;13.07;;;;;;;6.33;73.15;95600.44;4963613;28;20035;-74
2023/01/05 01:20:20;;;;;;;22.58;12.85;;;;;;;6.34;73.26;95591.75;4971263;28;20521;-74
2023/01/05 01:22:46;;;;;;;22.13;13.48;;;;;;;6.32;73.08;95591.81;4956944;28;20031;-74
2023/01/05 01:25:11;;;;;;;23.67;13.38;;;;;;;6.34;73.05;95594.34;4964662;28;20031;-74
2023/01/05 01:27:37;;;;;;;21.80;12.48;;;;;;;6.34;73.03;95586.59;4953213;28;20042;-74
2023/01/05 01:30:02;;;;;;;21.75;13.25;;;;;;;6.34;73.01;95582.25;4967772;28;20429;-74
2023/01/05 01:32:28;;;;;;;21.25;12.77;;;;;;;6.31;73.26;95589.34;4971084;28;20258;-74
2023/01/05 01:34:54;;;;;;;24.13;12.98;;;;;;;6.33;73.12;95577.19;4959135;28;20035;-74
2023/01/05 01:37:19;;;;;;;19.80;12.07;;;;;;;6.35;72.95;95577.94;4952037;28;20038;-74
2023/01/05 01:39:44;;;;;;;22.23;13.48;;;;;;;6.35;73.16;95567.59;4939409;29;20421;-74
2023/01/05 01:42:13;;;;;;;21.27;12.18;;;;;;;6.35;73.16;95577.94;4970600;28;20472;-74
2023/01/05 01:44:51;;;;;;;23.23;13.80;;;;;;;6.28;73.10;95558.53;4945855;28;20062;-74
2023/01/05 01:47:21;;;;;;;20.85;12.63;;;;;;;6.32;73.05;95562.63;4952345;29;20049;-74
2023/01/05 01:49:47;;;;;;;19.30;12.50;;;;;;;6.33;73.03;95552.22;4965803;28;20029;-74
2023/01/05 01:52:12;;;;;;;22.95;13.65;;;;;;;6.38;73.14;95551.94;4952076;29;20040;-74
2023/01/05 01:54:38;;;;;;;26.10;14.95;;;;;;;6.32;73.27;95539.38;4936565;28;20043;-74
2023/01/05 01:57:03;;;;;;;25.30;14.02;;;;;;;6.38;73.41;95544.22;4955871;28;20035;-74
2023/01/05 01:59:29;;;;;;;22.30;13.40;;;;;;;6.36;73.49;95543.47;4953282;28;20046;-74
2023/01/05 02:01:55;;;;;;;24.63;13.43;;;;;;;6.34;73.16;95540.16;4969840;28;20038;-74
2023/01/05 02:04:21;;;;;;;20.63;12.48;;;;;;;6.38;73.38;95536.47;4953751;28;20118;-74
2023/01/05 02:06:48;;;;;;;20.70;12.65;;;;;;;6.42;72.98;95532.81;4975950;28;20051;-74
2023/01/05 02:09:13;;;;;;;23.52;13.05;;;;;;;6.38;73.07;95526.13;4958122;28;20058;-74
2023/01/05 02:12:07;;;;;;;21.77;12.35;;;;;;;6.42;73.02;95525.06;4971028;28;20118;-74
2023/01/05 02:14:59;;;;;;;19.77;12.32;;;;;;;6.42;73.05;95523.31;4963728;28;20461;-74
2023/01/05 02:17:40;;;;;;;20.67;11.88;;;;;;;6.47;73.10;95517.91;4970087;28;20097;-74
2023/01/05 02:20:21;;;;;;;22.58;12.07;;;;;;;6.48;72.98;95506.66;4958468;28;20473;-74
2023/01/05 02:23:07;;;;;;;20.60;11.98;;;;;;;6.48;73.21;95506.66;4961424;28;20035;-74
2023/01/05 02:26:11;;;;;;;20.98;12.05;;;;;;;6.52;73.07;95505.59;4966903;28;20042;-74
2023/01/05 02:28:42;;;;;;;19.80;11.98;;;;;;;6.41;73.06;95497.59;4953281;29;20043;-74
2023/01/05 02:31:12;;;;;;;23.55;13.15;;;;;;;6.37;73.26;95496.09;4961491;28;20065;-75
2023/01/05 02:33:54;;;;;;;19.95;12.10;;;;;;;6.37;73.16;95488.34;4940548;28;20113;-74
2023/01/05 02:36:24;;;;;;;21.88;12.43;;;;;;;6.35;73.41;95482.44;4955898;28;20420;-74
2023/01/05 02:39:01;;;;;;;23.98;13.75;;;;;;;6.36;73.50;95477.22;4954288;28;20035;-74
2023/01/05 02:41:43;;;;;;;21.27;12.27;;;;;;;6.34;73.21;95478.22;4955558;28;20035;-74
2023/01/05 02:44:08;;;;;;;23.27;11.90;;;;;;;6.32;73.31;95490.34;4955573;28;20035;-74
2023/01/05 02:46:34;;;;;;;21.23;12.63;;;;;;;6.22;73.22;95477.97;4973748;28;20038;-74
2023/01/05 02:48:59;;;;;;;21.52;13.05;;;;;;;6.45;72.83;95481.03;4946227;29;20118;-74
2023/01/05 02:51:37;;;;;;;20.25;12.02;;;;;;;6.42;72.92;95491.53;4954239;28;20506;-74
2023/01/05 02:54:21;;;;;;;20.42;12.10;;;;;;;6.33;72.88;95490.28;4970572;28;20027;-74
2023/01/05 02:56:50;;;;;;;24.92;13.52;;;;;;;6.23;73.03;95492.53;4966334;28;20117;-74
2023/01/05 02:59:26;;;;;;;31.75;18.88;;;;;;;6.09;73.40;95483.88;4967079;28;20062;-74
2023/01/05 03:02:14;;;;;;;37.55;21.63;;;;;;;6.07;74.14;95485.72;4956644;28;20480;-74
2023/01/05 03:04:46;;;;;;;32.90;19.63;;;;;;;5.92;74.53;95482.19;4966136;28;20520;-74
2023/01/05 03:07:13;;;;;;;37.25;20.95;;;;;;;5.80;75.12;95476.78;4974025;28;20034;-74
2023/01/05 03:09:39;;;;;;;33.20;20.00;;;;;;;5.74;75.67;95464.22;4939713;28;20050;-74
2023/01/05 03:15:09;;;;;;;37.05;19.48;;;;;;;5.83;75.25;95468.88;4967341;28;20049;-74
2023/01/05 03:17:43;;;;;;;33.05;19.77;;;;;;;5.79;75.57;95451.91;4958054;28;20038;-74
2023/01/05 03:20:11;;;;;;;30.30;18.80;;;;;;;5.98;75.08;95458.66;4963070;28;20039;-74
2023/01/05 03:36:38;;;;;;;29.25;17.70;;;;;;;6.13;74.38;95429.47;4964232;28;20050;-74
2023/01/05 03:39:03;;;;;;;31.80;17.63;;;;;;;6.16;74.18;95424.13;4964405;28;20613;-74
2023/01/05 03:41:29;;;;;;;29.00;17.85;;;;;;;6.16;74.51;95425.91;4969373;28;20059;-74
2023/01/05 03:43:54;;;;;;;31.45;18.13;;;;;;;6.21;74.24;95432.47;4972703;28;20401;-74
2023/01/05 03:46:20;;;;;;;28.77;17.30;;;;;;;6.19;74.19;95428.28;4969410;28;20043;-74
2023/01/05 03:48:46;;;;;;;29.25;17.10;;;;;;;6.24;74.26;95426.25;4943639;28;20045;-74
2023/01/05 03:51:12;;;;;;;28.05;16.83;;;;;;;6.24;74.26;95423.69;4956332;28;20031;-74
2023/01/05 03:53:37;;;;;;;27.67;15.63;;;;;;;6.26;73.97;95422.69;4969231;28;20406;-74
2023/01/05 03:56:03;;;;;;;25.38;15.75;;;;;;;6.31;73.59;95431.94;4963115;28;20035;-74
2023/01/05 03:58:28;;;;;;;22.75;13.73;;;;;;;6.26;73.98;95434.75;4965015;28;20086;-74
2023/01/05 04:00:54;;;;;;;22.85;14.45;;;;;;;6.21;74.10;95422.13;4973791;28;20039;-74
2023/01/05 04:03:19;;;;;;;21.60;13.45;;;;;;;6.24;73.94;95424.53;4953981;28;20089;-74
2023/01/05 04:05:45;;;;;;;20.45;12.93;;;;;;;6.20;73.70;95420.47;4963904;28;20118;-74
2023/01/05 04:08:10;;;;;;;21.63;13.75;;;;;;;6.15;73.65;95409.56;4953004;29;20038;-74
2023/01/05 04:10:36;;;;;;;33.10;20.90;;;;;;;6.08;74.11;95413.41;4970448;28;20039;-74
2023/01/05 04:13:01;;;;;;;39.50;22.13;;;;;;;5.92;74.74;95409.97;4964413;28;20560;-74
2023/01/05 04:15:27;;;;;;;38.53;23.65;;;;;;;5.86;75.12;95413.72;4961269;28;20035;-74
2023/01/05 04:17:52;;;;;;;38.88;23.13;;;;;;;5.90;75.10;95406.66;4965276;28;20039;-74
2023/01/05 04:20:17;;;;;;;38.47;21.45;;;;;;;5.92;74.90;95412.56;4938234;28;20043;-74
2023/01/05 04:22:43;;;;;;;34.38;20.73;;;;;;;5.99;74.83;95411.31;4953825;28;20505;-74
2023/01/05 04:25:08;;;;;;;30.38;18.98;;;;;;;6.13;74.30;95407.97;4953966;28;20023;-74
2023/01/05 04:27:34;;;;;;;31.65;19.52;;;;;;;6.12;74.41;95394.25;4961332;28;20046;-74
2023/01/05 04:29:59;;;;;;;26.83;16.58;;;;;;;6.09;74.41;95402.16;4970455;28;20030;-74
2023/01/05 04:32:25;;;;;;;28.65;16.80;;;;;;;6.12;74.31;95396.84;4971725;28;20042;-75
2023/01/05 04:34:50;;;;;;;26.60;16.23;;;;;;;6.20;74.01;95394.66;4969710;28;20030;-74
2023/01/05 04:37:16;;;;;;;26.13;15.43;;;;;;;6.13;73.80;95382.19;4971619;28;20042;-74
2023/01/05 04:39:41;;;;;;;30.35;17.95;;;;;;;6.20;74.09;95396.41;4965811;28;20033;-74
2023/01/05 04:42:06;;;;;;;28.30;17.63;;;;;;;5.91;74.43;95359.34;4968339;28;20062;-74
2023/01/05 04:44:32;;;;;;;27.30;16.80;;;;;;;6.04;74.09;95389.53;4959154;28;20027;-74
2023/01/05 04:46:57;;;;;;;25.45;15.48;;;;;;;6.08;74.19;95389.38;4971131;28;20047;-74
2023/01/05 04:49:23;;;;;;;22.85;14.23;;;;;;;6.07;74.11;95395.44;4959498;28;20035;-73
2023/01/05 04:51:48;;;;;;;20.50;12.65;;;;;;;6.04;73.97;95399.88;4963216;28;20505;-73
2023/01/05 04:54:14;;;;;;;21.45;13.48;;;;;;;6.01;73.78;95401.75;4948180;29;20110;-73
2023/01/05 04:56:39;;;;;;;28.55;17.30;;;;;;;5.94;74.20;95408.19;4976167;28;20504;-73
2023/01/05 04:59:05;;;;;;;30.58;18.23;;;;;;;5.90;74.09;95406.66;4977217;28;20109;-73
2023/01/05 05:01:30;;;;;;;32.10;19.45;;;;;;;5.75;74.59;95409.16;4971461;28;20094;-73
2023/01/05 05:03:55;;;;;;;43.88;26.02;;;;;;;5.85;74.73;95429.28;4971039;28;20038;-74
2023/01/05 05:06:21;;;;;;;59.83;31.30;;;;;;;5.79;75.08;95423.56;4971263;28;20034;-73
2023/01/05 05:08:46;;;;;;;43.33;24.80;;;;;;;5.74;75.56;95422.97;4971116;28;20463;-73
2023/01/05 05:11:12;;;;;;;42.13;25.45;;;;;;;5.68;75.37;95422.44;4972464;28;20483;-73
2023/01/05 05:13:37;;;;;;;43.35;23.90;;;;;;;5.73;75.56;95416.13;4954752;28;20026;-72
2023/01/05 05:16:03;;;;;;;40.17;23.90;;;;;;;5.64;75.70;95426.94;4955122;28;20061;-73
2023/01/05 05:18:28;;;;;;;37.63;22.92;;;;;;;5.56;76.21;95419.63;4971071;28;20030;-73
2023/01/05 05:20:54;;;;;;;37.70;22.85;;;;;;;5.67;75.94;95425.94;4971297;28;20034;-73
2023/01/05 05:23:19;;;;;;;37.13;22.85;;;;;;;5.72;75.86;95424.78;4987110;28;20041;-73
2023/01/05 05:25:47;;;;;;;35.88;21.33;;;;;;;5.81;75.55;95432.03;4972300;28;20074;-73
2023/01/05 05:28:13;;;;;;;34.85;21.55;;;;;;;5.84;75.39;95443.91;4986881;28;20023;-73
2023/01/05 05:30:38;;;;;;;36.05;21.52;;;;;;;5.88;75.28;95436.84;4970432;28;20397;-73
2023/01/05 05:33:04;;;;;;;34.38;21.63;;;;;;;5.93;75.10;95437.41;4969083;28;20027;-75
2023/01/05 05:35:29;;;;;;;31.55;20.02;;;;;;;5.93;75.18;95419.38;4971135;28;20043;-72
2023/01/05 05:37:55;;;;;;;36.80;21.33;;;;;;;5.98;75.08;95419.97;4954823;28;20104;-73
2023/01/05 05:40:20;;;;;;;33.85;20.88;;;;;;;5.99;74.88;95422.50;4972748;28;20031;-73
2023/01/05 05:42:46;;;;;;;36.13;21.88;;;;;;;5.90;75.10;95409.22;4987189;28;20019;-73
2023/01/05 05:45:11;;;;;;;34.17;20.35;;;;;;;5.98;74.88;95417.41;4987553;28;20050;-73
2023/01/05 05:47:36;;;;;;;33.80;21.00;;;;;;;6.02;74.88;95416.34;4967266;28;20066;-74
2023/01/05 05:50:02;;;;;;;33.58;20.52;;;;;;;6.03;74.71;95407.66;4970860;28;20560;-73
2023/01/05 05:52:27;;;;;;;33.72;21.98;;;;;;;6.08;74.22;95400.50;4970786;28;20027;-74
2023/01/05 05:54:55;;;;;;;33.75;22.20;;;;;;;6.10;74.11;95393.53;4971245;28;20030;-75
2023/01/05 05:57:21;;;;;;;37.08;23.05;;;;;;;6.04;74.01;95383.53;4970645;28;20054;-74
2023/01/05 05:59:46;;;;;;;39.65;23.38;;;;;;;6.01;74.31;95381.94;4988035;28;20449;-74
2023/01/05 06:02:12;;;;;;;34.30;20.08;;;;;;;5.82;73.88;95358.06;4958316;28;20031;-74
2023/01/05 06:04:37;;;;;;;31.67;17.92;;;;;;;5.97;73.41;95383.06;4973649;28;20031;-73
2023/01/05 06:07:03;;;;;;;32.30;18.58;;;;;;;5.90;73.03;95376.53;4972710;28;20030;-74
2023/01/05 06:09:28;;;;;;;33.67;20.75;;;;;;;5.71;73.97;95356.09;4968226;28;20098;-74
2023/01/05 06:11:54;;;;;;;37.00;21.42;;;;;;;5.77;74.09;95371.22;4971320;28;20035;-73
2023/01/05 06:14:19;;;;;;;32.95;20.63;;;;;;;5.61;74.86;95349.78;4967793;28;20035;-73
2023/01/05 06:16:45;;;;;;;33.00;19.73;;;;;;;5.64;74.63;95362.50;4950962;28;20042;-73
2023/01/05 06:19:10;;;;;;;34.88;19.75;;;;;;;5.64;74.62;95357.34;4966356;28;20110;-73
2023/01/05 06:21:36;;;;;;;29.85;18.00;;;;;;;5.69;74.26;95347.63;4970459;28;20521;-74
2023/01/05 06:24:01;;;;;;;31.05;18.55;;;;;;;5.72;73.26;95351.78;4958119;28;20488;-73
2023/01/05 06:26:27;;;;;;;31.50;18.92;;;;;;;5.47;74.15;95317.03;4969850;28;20035;-73
2023/01/05 06:28:52;;;;;;;29.25;17.05;;;;;;;5.69;73.71;95351.94;4957105;28;20023;-73
2023/01/05 06:31:18;;;;;;;29.63;16.88;;;;;;;5.52;72.99;95342.56;4972358;28;20031;-73
2023/01/05 06:33:43;;;;;;;32.05;18.73;;;;;;;5.28;73.53;95342.97;4957930;28;20105;-73
2023/01/05 06:36:08;;;;;;;41.03;22.75;;;;;;;5.35;74.36;95351.22;4966609;28;20410;-73
2023/01/05 06:38:34;;;;;;;51.92;24.15;;;;;;;5.32;73.83;95348.78;4954275;28;20525;-73
2023/01/05 06:40:59;;;;;;;58.83;27.85;;;;;;;5.32;74.00;95346.19;4954550;29;20510;-73
2023/01/05 06:43:25;;;;;;;45.75;23.25;;;;;;;5.17;73.52;95329.00;4971615;28;20039;-73
2023/01/05 06:45:51;;;;;;;50.03;24.60;;;;;;;5.22;73.79;95342.47;4970394;28;20039;-73
2023/01/05 06:48:17;;;;;;;45.05;23.83;;;;;;;5.17;73.70;95344.44;4973680;28;20034;-73
2023/01/05 06:50:42;;;;;;;40.50;20.85;;;;;;;5.10;73.26;95343.97;4972024;28;20416;-73
2023/01/05 06:53:08;;;;;;;40.20;21.50;;;;;;;4.98;72.83;95342.00;4973954;28;20401;-73
2023/01/05 06:55:33;;;;;;;36.03;19.58;;;;;;;4.99;72.87;95347.09;4967376;28;20111;-73
2023/01/05 06:57:59;;;;;;;36.90;20.98;;;;;;;4.90;72.74;95358.72;4966957;28;20445;-73
2023/01/05 07:00:24;;;;;;;37.75;20.35;;;;;;;4.95;72.56;95360.19;4956530;28;20035;-75
2023/01/05 07:02:49;;;;;;;32.42;17.60;;;;;;;4.87;72.75;95363.16;4970103;28;20027;-73
2023/01/05 07:05:15;;;;;;;28.58;16.88;;;;;;;4.74;72.68;95344.97;4939363;28;20062;-73
2023/01/05 07:07:41;;;;;;;33.60;17.83;;;;;;;4.74;72.88;95357.84;4973117;28;20043;-73
2023/01/05 07:10:07;;;;;;;30.80;16.83;;;;;;;4.68;72.96;95353.81;4956159;28;20600;-75
2023/01/05 07:12:32;;;;;;;28.35;16.33;;;;;;;4.76;73.13;95366.28;4963276;28;20014;-75
2023/01/05 07:14:58;;;;;;;35.63;18.17;;;;;;;4.83;72.91;95356.53;4973303;28;20030;-73
2023/01/05 07:17:24;;;;;;;31.13;17.48;;;;;;;4.88;73.03;95368.25;4965084;28;20041;-73
2023/01/05 07:19:49;;;;;;;39.72;20.15;;;;;;;4.92;73.11;95350.88;4962084;28;20087;-73
2023/01/05 07:22:15;;;;;;;35.55;18.70;;;;;;;4.88;73.15;95360.53;4937186;29;20094;-73
2023/01/05 07:24:40;;;;;;;33.08;18.65;;;;;;;4.90;73.11;95348.41;4954141;28;20409;-73
2023/01/05 07:27:06;;;;;;;36.92;19.08;;;;;;;4.96;73.42;95356.69;4974040;28;20476;-73
2023/01/05 07:29:32;;;;;;;32.05;17.10;;;;;;;4.92;73.71;95354.28;4956926;28;20437;-73
2023/01/05 07:31:57;;;;;;;34.63;17.38;;;;;;;4.93;73.64;95355.13;4956734;28;20117;-73
2023/01/05 07:34:23;;;;;;;29.02;16.90;;;;;;;4.97;73.80;95353.22;4970831;28;20027;-73
2023/01/05 07:36:48;;;;;;;29.25;16.45;;;;;;;5.04;73.90;95352.84;4955326;28;20043;-73
2023/01/05 07:39:14;;;;;;;25.23;15.35;;;;;;;5.08;74.01;95356.06;4935533;29;20118;-73
2023/01/05 07:41:40;;;;;;;25.73;14.38;;;;;;;5.04;74.00;95332.25;4951116;29;20035;-73
2023/01/05 07:44:05;;;;;;;24.33;13.70;;;;;;;5.12;73.89;95336.97;4952364;28;20086;-73
2023/01/05 07:46:31;;;;;;;25.10;14.07;;;;;;;5.22;74.12;95334.75;4951191;29;20078;-73
2023/01/05 07:48:57;;;;;;;23.02;13.77;;;;;;;5.27;74.13;95333.59;4952077;28;20106;-73
2023/01/05 07:51:22;;;;;;;24.23;14.00;;;;;;;5.27;74.31;95319.88;4954588;28;20403;-73
2023/01/05 07:53:48;;;;;;;26.50;14.20;;;;;;;5.41;74.06;95319.13;4937145;29;20067;-73
2023/01/05 07:56:13;;;;;;;24.35;14.27;;;;;;;5.44;74.05;95319.78;4953156;29;20042;-73
2023/01/05 07:58:39;;;;;;;24.17;13.70;;;;;;;5.48;74.14;95317.84;4954067;28;20054;-73
2023/01/05 08:01:06;;;;;;;22.25;12.77;;;;;;;5.51;73.98;95310.78;4969045;28;20037;-73
2023/01/05 08:03:31;;;;;;;20.23;12.48;;;;;;;5.63;74.00;95306.72;4952749;29;20019;-73
2023/01/05 08:05:57;;;;;;;22.52;12.55;;;;;;;5.72;73.84;95310.53;4967257;28;20481;-73
2023/01/05 08:08:22;;;;;;;22.55;13.85;;;;;;;5.78;73.96;95298.13;4988362;28;20026;-73
2023/01/05 08:10:48;;;;;;;21.95;12.75;;;;;;;6.02;73.75;95313.16;4956338;28;20408;-73
2023/01/05 08:15:59;;;;;;;21.73;12.30;;;;;;;6.22;72.93;95291.38;4958535;28;20428;-73
2023/01/05 08:18:24;;;;;;;22.15;13.45;;;;;;;6.32;72.85;95286.50;4956048;28;20548;-73
2023/01/05 08:20:54;;;;;;;23.45;14.13;;;;;;;6.45;72.63;95285.69;4955894;28;20030;-73
2023/01/05 08:23:20;;;;;;;29.10;17.20;;;;;;;6.25;72.82;95289.44;4974851;28;20061;-73
2023/01/05 08:25:45;;;;;;;32.78;16.67;;;;;;;6.32;73.10;95289.09;4968280;28;20067;-73
2023/01/05 08:28:11;;;;;;;32.65;17.67;;;;;;;6.46;72.90;95281.34;4970819;28;20034;-73
2023/01/05 08:30:36;;;;;;;29.40;16.55;;;;;;;6.65;72.62;95296.59;4991348;28;20030;-73
2023/01/05 08:33:02;;;;;;;27.70;15.82;;;;;;;6.76;72.39;95294.19;4975093;28;20026;-73
2023/01/05 08:35:27;;;;;;;28.60;16.33;;;;;;;6.87;72.27;95307.28;4958842;28;20035;-73
2023/01/05 08:37:53;;;;;;;30.60;18.60;;;;;;;7.00;71.37;95297.06;4991126;28;20043;-73
2023/01/05 08:40:18;;;;;;;31.38;17.55;;;;;;;7.08;71.31;95300.00;4958687;28;20069;-73
2023/01/05 08:42:47;;;;;;;29.63;17.23;;;;;;;7.07;70.96;95307.81;4990870;28;20038;-74
2023/01/05 08:45:14;;;;;;;26.52;14.98;;;;;;;6.98;70.55;95306.63;4992122;28;20030;-73
2023/01/05 08:47:39;;;;;;;28.80;16.00;;;;;;;6.80;71.59;95310.31;4990647;28;20034;-74
2023/01/05 08:50:06;;;;;;;26.27;15.73;;;;;;;6.76;71.51;95289.03;4974819;28;20027;-73
2023/01/05 08:52:31;;;;;;;35.75;17.45;;;;;;;6.90;71.37;95291.59;4991991;28;20487;-73
2023/01/05 08:54:56;;;;;;;29.00;15.75;;;;;;;7.14;71.51;95283.28;4990917;28;20037;-73
2023/01/05 08:57:22;;;;;;;27.50;16.70;;;;;;;7.18;70.47;95274.41;4974283;28;20140;-73
2023/01/05 08:59:47;;;;;;;28.70;16.77;;;;;;;7.12;70.21;95296.28;4960811;28;20038;-73
2023/01/05 09:02:13;;;;;;;26.95;15.65;;;;;;;7.01;70.53;95283.19;4955195;28;20035;-73
2023/01/05 09:04:38;;;;;;;27.35;16.08;;;;;;;7.11;70.47;95289.47;4962482;28;20043;-73
2023/01/05 09:07:04;;;;;;;25.90;16.23;;;;;;;7.06;71.05;95282.94;4951947;29;20098;-73
2023/01/05 09:09:29;;;;;;;29.77;17.20;;;;;;;7.22;70.26;95275.06;4968543;28;20039;-73
2023/01/05 09:11:55;;;;;;;25.38;15.95;;;;;;;7.13;70.18;95274.72;4972359;28;20111;-73
2023/01/05 09:14:20;;;;;;;25.52;15.10;;;;;;;7.35;69.22;95266.44;4971614;28;20035;-73
2023/01/05 09:16:46;;;;;;;25.63;15.02;;;;;;;7.39;68.74;95254.16;4971299;28;20430;-73
2023/01/05 09:19:12;;;;;;;24.67;14.60;;;;;;;7.45;67.72;95246.00;4955093;28;20038;-73
2023/01/05 09:21:40;;;;;;;25.98;13.90;;;;;;;7.35;68.08;95224.25;4958307;28;20039;-73
2023/01/05 09:24:06;;;;;;;26.02;15.80;;;;;;;7.49;67.68;95226.78;4973338;28;20405;-74
2023/01/05 09:26:32;;;;;;;25.27;15.95;;;;;;;7.63;67.75;95228.47;4955161;28;20038;-74
2023/01/05 09:28:58;;;;;;;22.95;13.95;;;;;;;7.72;66.57;95211.56;4939207;28;20035;-73
2023/01/05 09:31:23;;;;;;;22.00;13.18;;;;;;;8.10;65.68;95205.59;4938988;28;20027;-76
2023/01/05 09:33:49;;;;;;;20.92;12.90;;;;;;;8.24;65.50;95200.31;4971259;28;20026;-74
2023/01/05 09:36:15;;;;;;;20.65;13.27;;;;;;;8.00;64.57;95185.53;4958085;28;20061;-73
2023/01/05 09:38:40;;;;;;;19.50;12.27;;;;;;;8.02;64.44;95188.84;4973916;28;20058;-73
2023/01/05 09:41:06;;;;;;;17.10;11.80;;;;;;;8.06;64.25;95181.69;4971978;28;20516;-72
2023/01/05 09:43:35;;;;;;;23.67;12.25;;;;;;;8.28;63.88;95179.31;4973292;28;20026;-72
2023/01/05 09:46:02;;;;;;;19.50;11.82;;;;;;;8.22;63.88;95171.97;4990278;28;20486;-72
2023/01/05 09:48:28;;;;;;;17.30;10.25;;;;;;;8.56;62.60;95174.03;4958432;28;20023;-72
2023/01/05 09:50:54;;;;;;;20.25;11.05;;;;;;;8.30;62.63;95155.91;4973895;28;20035;-72
2023/01/05 09:53:25;;;;;;;20.73;12.00;;;;;;;8.44;62.66;95152.41;4975797;28;20038;-72
2023/01/05 09:55:50;;;;;;;16.98;11.13;;;;;;;8.53;62.37;95151.78;4975067;28;20039;-72
2023/01/05 09:58:20;;;;;;;18.83;11.77;;;;;;;8.53;61.92;95138.00;4975571;28;20066;-72
2023/01/05 10:01:01;;;;;;;20.88;13.65;;;;;;;8.78;62.51;95130.16;4974633;28;20067;-72
2023/01/05 10:03:26;;;;;;;19.77;12.93;;;;;;;8.84;60.99;95121.13;4974590;28;20027;-72
2023/01/05 10:05:52;;;;;;;20.33;12.07;;;;;;;8.89;60.76;95126.81;4958360;28;20054;-72
2023/01/05 10:08:23;;;;;;;20.65;12.85;;;;;;;9.09;61.35;95133.16;4974485;28;20030;-73
2023/01/05 10:14:18;;;;;;;24.10;15.25;;;;;;;9.26;61.30;95119.81;4975978;28;20081;-73
2023/01/05 10:16:44;;;;;;;24.58;15.43;;;;;;;9.09;61.61;95121.03;4974660;28;20120;-73
2023/01/05 10:19:12;;;;;;;24.88;14.88;;;;;;;9.16;61.30;95113.63;4990722;28;20456;-73
2023/01/05 10:21:50;;;;;;;26.00;14.63;;;;;;;9.23;60.38;95114.84;4974294;28;20035;-72
2023/01/05 10:24:39;;;;;;;24.35;14.43;;;;;;;8.93;60.89;95107.53;4975845;28;20027;-73
2023/01/05 10:27:26;;;;;;;20.90;13.85;;;;;;;9.10;61.61;95088.16;4974248;28;20038;-73
2023/01/05 10:30:16;;;;;;;24.30;15.10;;;;;;;9.21;61.33;95097.75;4990429;28;20031;-73
2023/01/05 10:32:49;;;;;;;21.40;13.15;;;;;;;9.32;61.05;95101.22;4973859;28;20129;-73
2023/01/05 10:35:33;;;;;;;21.40;13.85;;;;;;;9.33;59.94;95100.28;4974068;28;20038;-73
2023/01/05 10:38:28;;;;;;;22.95;13.98;;;;;;;9.56;60.13;95106.38;4973831;28;20453;-73
2023/01/05 10:41:02;;;;;;;23.48;13.75;;;;;;;9.69;59.75;95090.69;4967150;28;20070;-73
2023/01/05 10:44:04;;;;;;;22.23;14.20;;;;;;;9.52;59.92;95079.00;4975049;28;20161;-73
2023/01/05 10:46:29;;;;;;;19.67;12.73;;;;;;;9.72;59.30;95089.63;4945635;28;20054;-73
2023/01/05 10:48:55;;;;;;;22.02;14.13;;;;;;;9.58;59.21;95082.91;4989998;28;20504;-73
2023/01/05 10:51:20;;;;;;;25.50;15.48;;;;;;;9.72;59.30;95074.94;4973713;28;20038;-73
2023/01/05 10:53:46;;;;;;;22.98;14.68;;;;;;;9.84;58.97;95073.16;4973722;28;20031;-73
2023/01/05 10:56:22;;;;;;;20.75;13.45;;;;;;;9.69;58.54;95053.56;4973416;28;20046;-73
2023/01/05 10:58:48;;;;;;;20.95;12.60;;;;;;;9.87;59.18;95061.72;4974781;28;20085;-73
2023/01/05 11:01:23;;;;;;;20.95;13.65;;;;;;;9.79;58.28;95038.97;4989845;28;20445;-73
2023/01/05 11:03:49;;;;;;;19.63;12.85;;;;;;;9.81;58.22;95043.09;4973727;28;20034;-73
2023/01/05 11:06:18;;;;;;;20.35;13.00;;;;;;;10.02;57.84;95048.41;4973243;28;20472;-73
2023/01/05 11:08:44;;;;;;;22.92;13.90;;;;;;;10.13;57.95;95051.94;4973419;28;20035;-73
2023/01/05 11:11:10;;;;;;;20.65;13.77;;;;;;;10.09;57.54;95034.97;4973449;28;20042;-73
2023/01/05 11:13:37;;;;;;;22.48;13.10;;;;;;;10.15;56.14;95024.91;4989305;28;20046;-73
2023/01/05 11:16:06;;;;;;;20.77;13.15;;;;;;;10.41;56.98;95050.66;4973240;28;20082;-73
2023/01/05 11:18:41;;;;;;;25.75;14.65;;;;;;;10.38;56.39;95037.91;4974557;28;20033;-73
2023/01/05 11:21:08;;;;;;;23.48;14.65;;;;;;;10.18;56.27;95037.66;4973915;28;20031;-73
2023/01/05 11:23:37;;;;;;;22.90;15.07;;;;;;;10.15;56.27;95035.31;4989254;28;20045;-75
2023/01/05 11:26:18;;;;;;;21.65;13.07;;;;;;;10.46;56.28;95030.34;4973369;28;20029;-73
2023/01/05 11:29:06;;;;;;;24.52;14.00;;;;;;;10.57;56.18;95019.94;4972975;28;20050;-73
2023/01/05 11:31:50;;;;;;;21.35;14.20;;;;;;;10.65;55.95;95020.16;4970795;28;20521;-73
2023/01/05 11:34:37;;;;;;;21.45;13.82;;;;;;;10.89;55.42;95026.91;4973245;28;20037;-73
2023/01/05 11:37:13;;;;;;;22.38;14.70;;;;;;;10.92;55.55;95031.84;4974030;28;20037;-73
2023/01/05 11:39:57;;;;;;;21.60;13.93;;;;;;;11.03;55.00;95026.63;4972936;28;20049;-73
2023/01/05 11:42:22;;;;;;;21.73;13.48;;;;;;;11.07;54.56;95017.63;4973074;28;20039;-73
2023/01/05 11:45:01;;;;;;;22.35;14.32;;;;;;;11.12;54.46;95004.25;4974336;28;20037;-73
2023/01/05 11:47:29;;;;;;;24.58;15.57;;;;;;;11.14;54.17;95018.78;4956942;28;20058;-73
2023/01/05 11:49:58;;;;;;;23.38;14.10;;;;;;;11.23;54.05;95000.75;4972709;28;20027;-73
2023/01/05 11:52:35;;;;;;;21.05;14.27;;;;;;;11.05;53.61;94997.91;4956302;28;20122;-73
2023/01/05 11:55:19;;;;;;;21.90;13.68;;;;;;;11.22;53.18;95007.75;4972671;28;20046;-73
2023/01/05 11:57:45;;;;;;;21.00;13.27;;;;;;;11.11;53.85;94990.41;4973070;28;20053;-73
2023/01/05 12:00:23;;;;;;;21.38;14.10;;;;;;;11.36;53.48;94998.81;4972667;28;20052;-73
2023/01/05 12:03:07;;;;;;;20.52;14.18;;;;;;;11.36;53.33;95001.41;4972421;28;20497;-73
2023/01/05 12:05:56;;;;;;;21.23;13.82;;;;;;;11.30;53.44;95005.34;4972553;28;20082;-73